Cherry Point MCAS /Cunningham Field/
KNKT : now visible

Airfield :











YOU CAN JOIN US ON...

 
LOGIN :

Register | Disclaimer

   EN    FR    IT 

 









Legend :    VFR   Marginal VFR   IFR   Intensive IFR   Very Intensive IFR
Visi :
Ceiling :
>= 8 km
>= 3000ft
5 to 8 km
1000 to 3000 ft
1500m to 5 km
500 to 1000 ft
800 to 1500m
200 to 500 ft
< 800m
< 200 ft
Symbols :   Thunderstorms  Fog  Heavy snow  Heavy precipitations  Wind > 20 kt






- Airport Elevation : 29 ft


KNKT - Cherry Point MCAS /Cunningham Field/

CURRENT METAR :
  • 241856Z 22019G25KT 7SM SCT110 29/22 A3005 RMK SLP171 T02890217

EXPIRED METARs :
  • 241756Z 20012G22KT 7SM SCT026 28/21 A3007 RMK SLP179 60001 T02830211 10289 20228 58009
  • 241656Z 21017G23KT 7SM FEW024 SCT040 27/22 A3008 RMK SLP184 T02670222

TAF TAF KNKT
Valid from the 24 at 15:00 until the 25 at 15:00 UTC


2415/2515 19010KT 9999 OVC040 540104 QNH3003INS
TEMPO 2416/2422 20010KT 4800 TSRA BR BKN010CB OVC050
BECMG 2422/2501 VRB06KT 9999 BKN030 BKN080 500000 QNH3007INS T27/2417Z T19/2509Z
KZDC FIR / North America



MET'MAP, your aeronautical weather chart ! - Copyright ORBIFLY December 2007 - Disclaimer

ORBIFLY MET'MAP TEAM :

Programming & Development : Alexandra Zaïnal
Original concept : Baudouin d'Aumeries
Technical & hardware support : Manuel Goepfert
Assistance : Marc-Olivier Méhu

Contact : metmap@orbifly.com




SOURCES & CREDITS :

   NOAA       Earth
Advisory